createdAt,value
2018-11-05T17:14:13.341Z,955.71
2018-11-05T17:15:13.336Z,955.70
2018-11-05T17:17:06.141Z,955.62
2018-11-05T17:18:05.746Z,955.67
2018-11-05T17:19:05.775Z,955.69
2018-11-05T17:20:05.825Z,955.66
2018-11-05T17:21:05.673Z,955.60
2018-11-05T17:22:05.657Z,955.61
2018-11-05T17:23:05.662Z,955.64
2018-11-05T17:24:05.644Z,955.61
2018-11-05T17:25:05.643Z,955.71
2018-11-05T17:26:05.652Z,955.66
2018-11-05T17:27:21.671Z,955.62
2018-11-05T17:28:29.328Z,955.61
2018-11-05T17:30:14.964Z,955.64
2018-11-05T17:31:14.952Z,955.58
2018-11-05T17:33:07.850Z,955.68
2018-11-05T17:34:07.796Z,955.68
2018-11-05T17:36:00.670Z,955.71
2018-11-05T17:37:00.662Z,955.77
2018-11-05T17:38:53.669Z,955.57
2018-11-05T17:39:53.568Z,955.63
2018-11-05T17:41:46.434Z,955.71
2018-11-05T17:44:00.738Z,955.63
2018-11-05T17:45:00.584Z,955.59
2018-11-05T17:46:54.972Z,955.66
2018-11-05T17:47:54.806Z,955.69
2018-11-05T17:48:54.854Z,955.71
2018-11-05T17:49:54.794Z,955.70
2018-11-05T17:50:55.034Z,955.71
2018-11-05T17:51:54.754Z,955.64
2018-11-05T17:52:54.754Z,955.63
2018-11-05T17:53:54.749Z,955.62
2018-11-05T17:54:54.754Z,955.68
2018-11-05T17:55:54.739Z,955.69
2018-11-05T17:56:54.746Z,955.71
2018-11-05T17:57:54.741Z,955.67
2018-11-05T17:58:54.727Z,955.64
2018-11-05T17:59:54.725Z,955.64
2018-11-05T18:00:54.752Z,955.64
2018-11-05T18:01:54.724Z,955.65
2018-11-05T18:02:54.731Z,955.60
2018-11-05T18:03:54.786Z,955.59
2018-11-05T18:04:54.711Z,955.59
2018-11-05T18:05:54.707Z,955.44
2018-11-05T18:06:54.703Z,955.54
2018-11-05T18:07:54.701Z,955.49
2018-11-05T18:08:54.782Z,955.38
2018-11-05T18:09:54.693Z,955.30
2018-11-05T18:10:54.709Z,955.26
2018-11-05T19:18:18.824Z,955.14
2018-11-05T19:19:18.825Z,955.18
